KDAB/DAB METAR and TAF weather

Enter ICAO airport designator
Station Type Date Time Source
KDAB METAR 2020/12/01 21:53 UTC NOAA

KDAB 012153Z 26006KT 10SM CLR 11/00 A3016 RMK AO2 SLP214 T01060000


Station Type Date Time Source
KDAB Decoded METAR 2020/12/01 21:53 UTC NOAA

DAYTONA BEACH INTERNATIONAL, FL, United States (KDAB) 29-10N 81-04W 9M
Dec 01, 2020 - 04:53 PM EST / 2020.12.01 2153 UTC
Wind: from the W (260 degrees) at 7 MPH (6 KT):0
Visibility: 10 mile(s):0
Sky conditions: clear
Temperature: 51.1 F (10.6 C)
Dew Point: 32.0 F (0.0 C)
Relative Humidity: 47%
Pressure (altimeter): 30.16 in. Hg (1021 hPa)
ob: KDAB 012153Z 26006KT 10SM CLR 11/00 A3016 RMK AO2 SLP214 T01060000
cycle: 22

Station Type Date Time Source
KDAB TAF 2020/12/01 18:27 UTC NOAA

TAF KDAB 011720Z 0118/0218 30010KT P6SM SKC
FM012300 33006KT P6SM FEW250
FM020200 34003KT P6SM FEW020 SCT250
FM021700 01008KT P6SM FEW030 BKN250

Example: see airport list